sensor_id;sensor_type;location;lat;lon;timestamp;pressure;altitude;pressure_sealevel;temperature;humidity
4981;BME280;2507;50.392;7.482;2024-01-06T00:00:42;99499.00;;;9.24;58.68
4981;BME280;2507;50.392;7.482;2024-01-06T00:03:07;99491.78;;;9.16;59.00
4981;BME280;2507;50.392;7.482;2024-01-06T00:05:32;99496.03;;;9.28;58.70
4981;BME280;2507;50.392;7.482;2024-01-06T00:07:57;99495.31;;;9.26;58.73
4981;BME280;2507;50.392;7.482;2024-01-06T00:10:23;99505.66;;;9.28;58.75
4981;BME280;2507;50.392;7.482;2024-01-06T00:12:48;99502.22;;;9.27;58.73
4981;BME280;2507;50.392;7.482;2024-01-06T00:15:13;99505.41;;;9.31;58.55
4981;BME280;2507;50.392;7.482;2024-01-06T00:17:39;99508.69;;;9.23;58.66
4981;BME280;2507;50.392;7.482;2024-01-06T00:20:05;99511.41;;;9.22;58.70
4981;BME280;2507;50.392;7.482;2024-01-06T00:22:30;99501.75;;;9.22;58.93
4981;BME280;2507;50.392;7.482;2024-01-06T00:24:55;99512.25;;;9.43;58.16
4981;BME280;2507;50.392;7.482;2024-01-06T00:27:21;99513.00;;;9.34;58.44
4981;BME280;2507;50.392;7.482;2024-01-06T00:29:46;99510.25;;;9.36;58.55
4981;BME280;2507;50.392;7.482;2024-01-06T00:32:12;99510.00;;;9.39;58.98
4981;BME280;2507;50.392;7.482;2024-01-06T00:34:38;99512.19;;;9.34;58.83
4981;BME280;2507;50.392;7.482;2024-01-06T00:37:03;99510.84;;;9.39;58.63
4981;BME280;2507;50.392;7.482;2024-01-06T00:39:28;99509.56;;;9.34;58.75
4981;BME280;2507;50.392;7.482;2024-01-06T00:41:54;99508.53;;;9.25;58.96
4981;BME280;2507;50.392;7.482;2024-01-06T00:44:19;99510.31;;;9.24;59.12
4981;BME280;2507;50.392;7.482;2024-01-06T00:46:44;99506.09;;;9.33;59.11
4981;BME280;2507;50.392;7.482;2024-01-06T00:49:10;99514.09;;;9.32;58.88
4981;BME280;2507;50.392;7.482;2024-01-06T00:51:35;99524.38;;;9.44;58.79
4981;BME280;2507;50.392;7.482;2024-01-06T00:54:01;99509.50;;;9.45;58.54
4981;BME280;2507;50.392;7.482;2024-01-06T00:56:26;99511.16;;;9.46;58.64
4981;BME280;2507;50.392;7.482;2024-01-06T00:58:52;99523.72;;;9.52;58.08
4981;BME280;2507;50.392;7.482;2024-01-06T01:01:18;99516.22;;;9.38;58.81
4981;BME280;2507;50.392;7.482;2024-01-06T01:03:43;99511.69;;;9.40;58.62
4981;BME280;2507;50.392;7.482;2024-01-06T01:06:08;99513.06;;;9.44;58.61
4981;BME280;2507;50.392;7.482;2024-01-06T01:08:34;99518.03;;;9.26;59.21
4981;BME280;2507;50.392;7.482;2024-01-06T01:10:59;99518.81;;;9.38;59.28
4981;BME280;2507;50.392;7.482;2024-01-06T01:13:24;99519.00;;;9.46;58.85
4981;BME280;2507;50.392;7.482;2024-01-06T01:15:49;99523.09;;;9.39;59.02
4981;BME280;2507;50.392;7.482;2024-01-06T01:18:15;99531.66;;;9.41;59.23
4981;BME280;2507;50.392;7.482;2024-01-06T01:20:40;99534.75;;;9.35;59.16
4981;BME280;2507;50.392;7.482;2024-01-06T01:23:08;99527.44;;;9.28;59.19
4981;BME280;2507;50.392;7.482;2024-01-06T01:25:33;99525.63;;;9.29;59.87
4981;BME280;2507;50.392;7.482;2024-01-06T01:27:59;99535.59;;;9.35;59.87
4981;BME280;2507;50.392;7.482;2024-01-06T01:30:24;99538.09;;;9.37;59.31
4981;BME280;2507;50.392;7.482;2024-01-06T01:32:50;99540.78;;;9.46;59.13
4981;BME280;2507;50.392;7.482;2024-01-06T01:35:15;99538.09;;;9.37;59.56
4981;BME280;2507;50.392;7.482;2024-01-06T01:37:41;99540.16;;;9.54;58.99
4981;BME280;2507;50.392;7.482;2024-01-06T01:40:06;99544.47;;;9.44;59.17
4981;BME280;2507;50.392;7.482;2024-01-06T01:42:32;99542.31;;;9.49;59.40
4981;BME280;2507;50.392;7.482;2024-01-06T01:44:58;99547.41;;;9.29;59.91
4981;BME280;2507;50.392;7.482;2024-01-06T01:47:23;99547.94;;;9.23;60.22
4981;BME280;2507;50.392;7.482;2024-01-06T01:49:49;99552.50;;;9.31;60.21
4981;BME280;2507;50.392;7.482;2024-01-06T01:52:15;99563.50;;;9.46;59.70
4981;BME280;2507;50.392;7.482;2024-01-06T01:54:41;99564.41;;;9.35;60.02
4981;BME280;2507;50.392;7.482;2024-01-06T01:57:07;99562.63;;;9.36;59.89
4981;BME280;2507;50.392;7.482;2024-01-06T01:59:33;99563.47;;;9.36;59.87
4981;BME280;2507;50.392;7.482;2024-01-06T02:01:58;99568.44;;;9.39;60.22
4981;BME280;2507;50.392;7.482;2024-01-06T02:04:24;99570.16;;;9.50;59.71
4981;BME280;2507;50.392;7.482;2024-01-06T02:06:49;99565.69;;;9.41;60.23
4981;BME280;2507;50.392;7.482;2024-01-06T02:09:15;99561.03;;;9.44;60.06
4981;BME280;2507;50.392;7.482;2024-01-06T02:11:40;99570.44;;;9.47;60.07
4981;BME280;2507;50.392;7.482;2024-01-06T02:14:05;99568.69;;;9.57;59.97
4981;BME280;2507;50.392;7.482;2024-01-06T02:16:31;99575.84;;;9.55;59.74
4981;BME280;2507;50.392;7.482;2024-01-06T02:18:56;99574.69;;;9.48;59.94
4981;BME280;2507;50.392;7.482;2024-01-06T02:21:23;99576.25;;;9.50;59.96
4981;BME280;2507;50.392;7.482;2024-01-06T02:23:48;99576.38;;;9.49;60.28
4981;BME280;2507;50.392;7.482;2024-01-06T02:26:15;99586.63;;;9.41;60.38
4981;BME280;2507;50.392;7.482;2024-01-06T02:28:40;99579.75;;;9.40;60.33
4981;BME280;2507;50.392;7.482;2024-01-06T02:31:06;99582.16;;;9.32;60.79
4981;BME280;2507;50.392;7.482;2024-01-06T02:33:31;99594.53;;;9.29;61.12
4981;BME280;2507;50.392;7.482;2024-01-06T02:35:56;99596.66;;;9.36;61.00
4981;BME280;2507;50.392;7.482;2024-01-06T02:38:22;99601.63;;;9.18;61.76
4981;BME280;2507;50.392;7.482;2024-01-06T02:40:47;99605.16;;;9.17;61.85
4981;BME280;2507;50.392;7.482;2024-01-06T02:43:12;99606.00;;;9.17;61.98
4981;BME280;2507;50.392;7.482;2024-01-06T02:45:37;99609.47;;;9.18;62.03
4981;BME280;2507;50.392;7.482;2024-01-06T02:48:03;99602.91;;;9.23;61.82
4981;BME280;2507;50.392;7.482;2024-01-06T02:50:28;99607.78;;;9.17;61.97
4981;BME280;2507;50.392;7.482;2024-01-06T02:52:53;99609.91;;;9.23;62.14
4981;BME280;2507;50.392;7.482;2024-01-06T02:55:19;99612.09;;;9.18;62.35
4981;BME280;2507;50.392;7.482;2024-01-06T02:57:44;99619.34;;;9.14;62.47
4981;BME280;2507;50.392;7.482;2024-01-06T03:00:10;99613.03;;;9.17;62.58
4981;BME280;2507;50.392;7.482;2024-01-06T03:02:35;99622.47;;;9.08;63.06
4981;BME280;2507;50.392;7.482;2024-01-06T03:05:02;99626.72;;;9.09;63.21
4981;BME280;2507;50.392;7.482;2024-01-06T03:07:27;99625.53;;;9.13;63.00
4981;BME280;2507;50.392;7.482;2024-01-06T03:09:52;99629.44;;;9.19;62.86
4981;BME280;2507;50.392;7.482;2024-01-06T03:12:17;99625.78;;;9.10;63.16
4981;BME280;2507;50.392;7.482;2024-01-06T03:14:43;99636.00;;;9.13;63.18
4981;BME280;2507;50.392;7.482;2024-01-06T03:17:08;99629.91;;;9.13;63.14
4981;BME280;2507;50.392;7.482;2024-01-06T03:19:36;99635.31;;;9.00;63.41
4981;BME280;2507;50.392;7.482;2024-01-06T03:22:01;99629.03;;;8.92;63.87
4981;BME280;2507;50.392;7.482;2024-01-06T03:24:26;99629.72;;;9.05;63.55
4981;BME280;2507;50.392;7.482;2024-01-06T03:26:52;99632.78;;;9.10;63.25
4981;BME280;2507;50.392;7.482;2024-01-06T03:29:17;99635.72;;;9.16;63.12
4981;BME280;2507;50.392;7.482;2024-01-06T03:31:44;99639.69;;;9.11;63.26
4981;BME280;2507;50.392;7.482;2024-01-06T03:34:09;99635.09;;;9.03;63.34
4981;BME280;2507;50.392;7.482;2024-01-06T03:36:36;99642.81;;;9.05;63.43
4981;BME280;2507;50.392;7.482;2024-01-06T03:39:02;99638.38;;;9.05;63.52
4981;BME280;2507;50.392;7.482;2024-01-06T03:41:27;99639.09;;;9.07;63.46
4981;BME280;2507;50.392;7.482;2024-01-06T03:43:53;99644.31;;;9.07;63.83
4981;BME280;2507;50.392;7.482;2024-01-06T03:46:18;99645.88;;;9.10;63.55
4981;BME280;2507;50.392;7.482;2024-01-06T03:48:43;99650.19;;;9.00;63.72
4981;BME280;2507;50.392;7.482;2024-01-06T03:51:10;99648.78;;;8.96;64.08
4981;BME280;2507;50.392;7.482;2024-01-06T03:53:35;99650.19;;;9.00;64.17
4981;BME280;2507;50.392;7.482;2024-01-06T03:56:00;99657.66;;;9.15;63.60
4981;BME280;2507;50.392;7.482;2024-01-06T03:58:26;99659.13;;;9.29;63.10
4981;BME280;2507;50.392;7.482;2024-01-06T04:00:51;99662.09;;;9.36;62.65
4981;BME280;2507;50.392;7.482;2024-01-06T04:03:16;99665.88;;;9.43;62.38
4981;BME280;2507;50.392;7.482;2024-01-06T04:05:41;99660.16;;;9.49;62.30
4981;BME280;2507;50.392;7.482;2024-01-06T04:08:07;99658.22;;;9.62;61.75
4981;BME280;2507;50.392;7.482;2024-01-06T04:10:32;99658.28;;;9.40;62.43
4981;BME280;2507;50.392;7.482;2024-01-06T04:12:57;99667.66;;;9.42;62.46
4981;BME280;2507;50.392;7.482;2024-01-06T04:15:23;99659.03;;;9.31;62.63
4981;BME280;2507;50.392;7.482;2024-01-06T04:17:49;99666.66;;;9.22;62.91
4981;BME280;2507;50.392;7.482;2024-01-06T04:20:14;99676.09;;;9.14;63.28
4981;BME280;2507;50.392;7.482;2024-01-06T04:22:39;99670.28;;;9.10;63.31
4981;BME280;2507;50.392;7.482;2024-01-06T04:25:05;99674.09;;;9.06;63.56
4981;BME280;2507;50.392;7.482;2024-01-06T04:27:30;99665.50;;;9.15;63.42
4981;BME280;2507;50.392;7.482;2024-01-06T04:29:56;99673.59;;;9.12;63.84
4981;BME280;2507;50.392;7.482;2024-01-06T04:32:21;99668.78;;;9.28;63.79
4981;BME280;2507;50.392;7.482;2024-01-06T04:34:46;99666.81;;;9.10;65.04
4981;BME280;2507;50.392;7.482;2024-01-06T04:37:12;99663.88;;;8.92;66.12
4981;BME280;2507;50.392;7.482;2024-01-06T04:39:37;99676.50;;;8.76;67.24
4981;BME280;2507;50.392;7.482;2024-01-06T04:42:03;99678.75;;;8.81;67.34
4981;BME280;2507;50.392;7.482;2024-01-06T04:44:29;99679.00;;;8.89;67.54
4981;BME280;2507;50.392;7.482;2024-01-06T04:46:54;99681.69;;;8.87;67.34
4981;BME280;2507;50.392;7.482;2024-01-06T04:49:19;99688.63;;;8.88;67.56
4981;BME280;2507;50.392;7.482;2024-01-06T04:51:45;99682.53;;;8.99;67.24
4981;BME280;2507;50.392;7.482;2024-01-06T04:54:10;99680.75;;;9.10;66.52
4981;BME280;2507;50.392;7.482;2024-01-06T04:56:35;99682.25;;;9.24;66.16
4981;BME280;2507;50.392;7.482;2024-01-06T04:59:00;99683.94;;;9.14;65.80
4981;BME280;2507;50.392;7.482;2024-01-06T05:01:26;99678.16;;;8.88;67.19
4981;BME280;2507;50.392;7.482;2024-01-06T05:03:51;99677.16;;;9.00;67.39
4981;BME280;2507;50.392;7.482;2024-01-06T05:06:16;99675.38;;;9.44;65.90
4981;BME280;2507;50.392;7.482;2024-01-06T05:08:42;99682.97;;;9.58;65.52
4981;BME280;2507;50.392;7.482;2024-01-06T05:11:10;99680.91;;;9.72;64.64
4981;BME280;2507;50.392;7.482;2024-01-06T05:13:36;99683.00;;;9.78;63.43
4981;BME280;2507;50.392;7.482;2024-01-06T05:16:01;99681.09;;;9.49;64.43
4981;BME280;2507;50.392;7.482;2024-01-06T05:18:26;99678.44;;;9.28;65.43
4981;BME280;2507;50.392;7.482;2024-01-06T05:20:52;99686.69;;;9.12;66.29
4981;BME280;2507;50.392;7.482;2024-01-06T05:23:17;99693.38;;;8.94;66.70
4981;BME280;2507;50.392;7.482;2024-01-06T05:25:42;99695.88;;;8.96;66.94
4981;BME280;2507;50.392;7.482;2024-01-06T05:28:08;99693.25;;;9.07;66.27
4981;BME280;2507;50.392;7.482;2024-01-06T05:30:33;99696.81;;;8.95;66.64
4981;BME280;2507;50.392;7.482;2024-01-06T05:32:58;99694.28;;;9.04;66.95
4981;BME280;2507;50.392;7.482;2024-01-06T05:35:23;99691.09;;;9.01;66.51
4981;BME280;2507;50.392;7.482;2024-01-06T05:37:49;99684.31;;;8.87;66.59
4981;BME280;2507;50.392;7.482;2024-01-06T05:40:14;99685.41;;;8.96;66.76
4981;BME280;2507;50.392;7.482;2024-01-06T05:42:40;99687.19;;;8.95;66.87
4981;BME280;2507;50.392;7.482;2024-01-06T05:45:05;99691.22;;;8.88;66.95
4981;BME280;2507;50.392;7.482;2024-01-06T05:47:30;99687.06;;;8.86;67.45
4981;BME280;2507;50.392;7.482;2024-01-06T05:49:56;99697.06;;;8.92;67.01
4981;BME280;2507;50.392;7.482;2024-01-06T05:52:21;99699.22;;;8.76;67.28
4981;BME280;2507;50.392;7.482;2024-01-06T05:54:46;99696.47;;;8.66;67.87
4981;BME280;2507;50.392;7.482;2024-01-06T05:57:11;99697.19;;;8.68;67.85
4981;BME280;2507;50.392;7.482;2024-01-06T05:59:37;99708.09;;;8.62;68.38
4981;BME280;2507;50.392;7.482;2024-01-06T06:02:02;99706.47;;;8.61;68.31
4981;BME280;2507;50.392;7.482;2024-01-06T06:04:27;99712.41;;;8.74;68.00
4981;BME280;2507;50.392;7.482;2024-01-06T06:06:53;99707.78;;;8.78;67.69
4981;BME280;2507;50.392;7.482;2024-01-06T06:09:18;99713.72;;;8.80;67.32
4981;BME280;2507;50.392;7.482;2024-01-06T06:11:45;99724.19;;;8.69;67.73
4981;BME280;2507;50.392;7.482;2024-01-06T06:14:10;99717.50;;;8.65;68.04
4981;BME280;2507;50.392;7.482;2024-01-06T06:16:35;99724.16;;;8.58;68.29
4981;BME280;2507;50.392;7.482;2024-01-06T06:19:00;99729.00;;;8.51;68.58
4981;BME280;2507;50.392;7.482;2024-01-06T06:21:26;99728.78;;;8.43;69.54
4981;BME280;2507;50.392;7.482;2024-01-06T06:23:51;99739.00;;;8.57;68.70
4981;BME280;2507;50.392;7.482;2024-01-06T06:26:16;99735.34;;;8.71;68.34
4981;BME280;2507;50.392;7.482;2024-01-06T06:28:42;99738.91;;;8.70;68.38
4981;BME280;2507;50.392;7.482;2024-01-06T06:31:07;99748.31;;;8.72;69.17
4981;BME280;2507;50.392;7.482;2024-01-06T06:33:32;99749.03;;;8.74;68.78
4981;BME280;2507;50.392;7.482;2024-01-06T06:36:00;99752.94;;;8.80;68.39
4981;BME280;2507;50.392;7.482;2024-01-06T06:38:26;99758.06;;;8.81;68.39
4981;BME280;2507;50.392;7.482;2024-01-06T06:40:52;99761.50;;;8.93;67.44
4981;BME280;2507;50.392;7.482;2024-01-06T06:43:17;99763.97;;;9.16;66.67
4981;BME280;2507;50.392;7.482;2024-01-06T06:45:42;99764.47;;;9.21;66.63
4981;BME280;2507;50.392;7.482;2024-01-06T06:48:08;99769.22;;;9.27;66.32
4981;BME280;2507;50.392;7.482;2024-01-06T06:50:33;99764.94;;;9.15;66.69
4981;BME280;2507;50.392;7.482;2024-01-06T06:52:59;99779.22;;;8.89;67.53
4981;BME280;2507;50.392;7.482;2024-01-06T06:55:26;99768.25;;;8.73;68.87
4981;BME280;2507;50.392;7.482;2024-01-06T06:57:52;99783.00;;;8.63;69.93
4981;BME280;2507;50.392;7.482;2024-01-06T07:00:17;99784.44;;;9.11;68.59
4981;BME280;2507;50.392;7.482;2024-01-06T07:02:43;99797.78;;;9.42;66.55
4981;BME280;2507;50.392;7.482;2024-01-06T07:05:08;99796.97;;;9.73;65.44
4981;BME280;2507;50.392;7.482;2024-01-06T07:07:34;99800.56;;;9.72;64.39
4981;BME280;2507;50.392;7.482;2024-01-06T07:10:02;99799.13;;;9.68;64.63
4981;BME280;2507;50.392;7.482;2024-01-06T07:12:33;99807.00;;;9.68;64.13
4981;BME280;2507;50.392;7.482;2024-01-06T07:14:58;99805.66;;;9.84;63.92
4981;BME280;2507;50.392;7.482;2024-01-06T07:17:24;99808.66;;;9.80;63.99
4981;BME280;2507;50.392;7.482;2024-01-06T07:19:50;99812.63;;;9.63;63.90
4981;BME280;2507;50.392;7.482;2024-01-06T07:22:15;99815.25;;;9.30;65.96
4981;BME280;2507;50.392;7.482;2024-01-06T07:24:41;99820.38;;;9.20;66.39
4981;BME280;2507;50.392;7.482;2024-01-06T07:27:07;99806.22;;;9.34;66.63
4981;BME280;2507;50.392;7.482;2024-01-06T07:29:32;99816.91;;;9.31;66.14
4981;BME280;2507;50.392;7.482;2024-01-06T07:31:57;99821.69;;;9.15;66.75
4981;BME280;2507;50.392;7.482;2024-01-06T07:34:22;99824.19;;;9.16;67.12
4981;BME280;2507;50.392;7.482;2024-01-06T07:36:48;99832.63;;;9.20;67.12
4981;BME280;2507;50.392;7.482;2024-01-06T07:39:13;99836.91;;;9.10;67.69
4981;BME280;2507;50.392;7.482;2024-01-06T07:41:39;99836.06;;;8.98;68.06
4981;BME280;2507;50.392;7.482;2024-01-06T07:44:04;99845.72;;;8.98;68.26
4981;BME280;2507;50.392;7.482;2024-01-06T07:46:30;99856.06;;;9.10;67.94
4981;BME280;2507;50.392;7.482;2024-01-06T07:48:56;99852.97;;;9.05;67.85
4981;BME280;2507;50.392;7.482;2024-01-06T07:51:21;99862.94;;;8.89;68.72
4981;BME280;2507;50.392;7.482;2024-01-06T07:53:46;99873.63;;;8.86;69.62
4981;BME280;2507;50.392;7.482;2024-01-06T07:56:12;99875.56;;;8.95;69.73
4981;BME280;2507;50.392;7.482;2024-01-06T07:58:37;99875.97;;;8.78;70.45
4981;BME280;2507;50.392;7.482;2024-01-06T08:01:02;99883.03;;;8.89;70.53
4981;BME280;2507;50.392;7.482;2024-01-06T08:03:28;99880.78;;;8.95;70.53
4981;BME280;2507;50.392;7.482;2024-01-06T08:05:53;99879.13;;;9.05;70.57
4981;BME280;2507;50.392;7.482;2024-01-06T08:08:19;99887.72;;;9.18;70.43
4981;BME280;2507;50.392;7.482;2024-01-06T08:10:44;99882.75;;;9.26;70.24
4981;BME280;2507;50.392;7.482;2024-01-06T08:13:10;99891.75;;;9.11;71.00
4981;BME280;2507;50.392;7.482;2024-01-06T08:15:35;99895.53;;;8.85;72.56
4981;BME280;2507;50.392;7.482;2024-01-06T08:18:01;99896.25;;;8.64;73.94
4981;BME280;2507;50.392;7.482;2024-01-06T08:20:26;99902.22;;;8.66;74.87
4981;BME280;2507;50.392;7.482;2024-01-06T08:22:51;99905.06;;;8.63;74.94
4981;BME280;2507;50.392;7.482;2024-01-06T08:25:17;99906.16;;;8.71;75.32
4981;BME280;2507;50.392;7.482;2024-01-06T08:27:43;99908.56;;;8.74;75.32
4981;BME280;2507;50.392;7.482;2024-01-06T08:30:09;99912.53;;;8.91;74.93
4981;BME280;2507;50.392;7.482;2024-01-06T08:32:34;99914.97;;;9.16;73.50
4981;BME280;2507;50.392;7.482;2024-01-06T08:34:59;99912.59;;;9.24;72.93
4981;BME280;2507;50.392;7.482;2024-01-06T08:37:24;99913.78;;;9.09;72.78
4981;BME280;2507;50.392;7.482;2024-01-06T08:39:50;99916.66;;;9.28;72.37
4981;BME280;2507;50.392;7.482;2024-01-06T08:42:15;99924.59;;;9.15;72.09
4981;BME280;2507;50.392;7.482;2024-01-06T08:44:40;99929.84;;;9.15;72.47
4981;BME280;2507;50.392;7.482;2024-01-06T08:47:06;99932.94;;;9.32;72.31
4981;BME280;2507;50.392;7.482;2024-01-06T08:49:31;99933.06;;;9.30;71.35
4981;BME280;2507;50.392;7.482;2024-01-06T08:51:58;99940.09;;;9.41;71.09
4981;BME280;2507;50.392;7.482;2024-01-06T08:54:23;99941.53;;;9.34;71.38
4981;BME280;2507;50.392;7.482;2024-01-06T08:56:48;99955.31;;;9.24;71.50
4981;BME280;2507;50.392;7.482;2024-01-06T08:59:14;99958.06;;;9.23;71.49
4981;BME280;2507;50.392;7.482;2024-01-06T09:01:39;99956.88;;;9.27;71.85
4981;BME280;2507;50.392;7.482;2024-01-06T09:04:04;99957.81;;;9.37;70.93
4981;BME280;2507;50.392;7.482;2024-01-06T09:06:31;99957.50;;;9.42;70.66
4981;BME280;2507;50.392;7.482;2024-01-06T09:08:56;99968.72;;;9.20;71.63
4981;BME280;2507;50.392;7.482;2024-01-06T09:11:22;99971.00;;;9.13;72.59
4981;BME280;2507;50.392;7.482;2024-01-06T09:13:47;99971.59;;;9.17;72.86
4981;BME280;2507;50.392;7.482;2024-01-06T09:16:12;99971.56;;;9.06;74.05
4981;BME280;2507;50.392;7.482;2024-01-06T09:18:37;99979.03;;;8.99;75.00
4981;BME280;2507;50.392;7.482;2024-01-06T09:21:03;99975.47;;;9.00;75.10
4981;BME280;2507;50.392;7.482;2024-01-06T09:23:28;99988.66;;;8.99;75.29
4981;BME280;2507;50.392;7.482;2024-01-06T09:25:54;99984.72;;;8.93;74.56
4981;BME280;2507;50.392;7.482;2024-01-06T09:28:19;99991.25;;;8.88;74.86
4981;BME280;2507;50.392;7.482;2024-01-06T09:30:46;99992.34;;;8.96;74.44
4981;BME280;2507;50.392;7.482;2024-01-06T09:33:11;99998.09;;;9.01;74.14
4981;BME280;2507;50.392;7.482;2024-01-06T09:35:40;100002.66;;;8.87;73.58
4981;BME280;2507;50.392;7.482;2024-01-06T09:38:06;100010.22;;;8.79;74.38
4981;BME280;2507;50.392;7.482;2024-01-06T09:40:33;100013.50;;;8.70;75.06
4981;BME280;2507;50.392;7.482;2024-01-06T09:42:59;100018.13;;;8.66;75.35
4981;BME280;2507;50.392;7.482;2024-01-06T09:45:24;100030.03;;;8.70;75.50
4981;BME280;2507;50.392;7.482;2024-01-06T09:47:51;100030.91;;;8.71;75.48
4981;BME280;2507;50.392;7.482;2024-01-06T09:50:19;100023.59;;;8.63;75.15
4981;BME280;2507;50.392;7.482;2024-01-06T09:52:46;100032.59;;;8.59;75.42
4981;BME280;2507;50.392;7.482;2024-01-06T09:55:23;100035.09;;;8.61;75.19
4981;BME280;2507;50.392;7.482;2024-01-06T09:57:50;100031.69;;;8.71;74.63
4981;BME280;2507;50.392;7.482;2024-01-06T10:00:16;100035.47;;;8.67;74.15
4981;BME280;2507;50.392;7.482;2024-01-06T10:02:42;100043.97;;;8.58;73.98
4981;BME280;2507;50.392;7.482;2024-01-06T10:05:08;100037.34;;;8.54;73.99
4981;BME280;2507;50.392;7.482;2024-01-06T10:07:35;100041.00;;;8.52;73.27
4981;BME280;2507;50.392;7.482;2024-01-06T10:10:00;100048.53;;;8.56;73.17
4981;BME280;2507;50.392;7.482;2024-01-06T10:12:26;100047.06;;;8.52;72.31
4981;BME280;2507;50.392;7.482;2024-01-06T10:14:52;100061.31;;;8.36;72.43
4981;BME280;2507;50.392;7.482;2024-01-06T10:17:17;100059.25;;;8.28;72.74
4981;BME280;2507;50.392;7.482;2024-01-06T10:19:46;100062.34;;;8.33;72.58
4981;BME280;2507;50.392;7.482;2024-01-06T10:22:13;100066.97;;;8.30;72.52
4981;BME280;2507;50.392;7.482;2024-01-06T10:24:39;100071.03;;;8.21;72.29
4981;BME280;2507;50.392;7.482;2024-01-06T10:27:04;100076.56;;;8.16;72.05
4981;BME280;2507;50.392;7.482;2024-01-06T10:29:30;100078.47;;;8.14;72.14
4981;BME280;2507;50.392;7.482;2024-01-06T10:31:55;100068.47;;;7.96;71.73
4981;BME280;2507;50.392;7.482;2024-01-06T10:34:21;100075.34;;;7.84;72.12
4981;BME280;2507;50.392;7.482;2024-01-06T10:36:47;100076.47;;;7.80;72.58
4981;BME280;2507;50.392;7.482;2024-01-06T10:39:13;100075.34;;;7.72;72.67
4981;BME280;2507;50.392;7.482;2024-01-06T10:41:41;100081.94;;;7.77;73.63
4981;BME280;2507;50.392;7.482;2024-01-06T10:44:07;100083.41;;;7.81;72.78
4981;BME280;2507;50.392;7.482;2024-01-06T10:46:34;100086.41;;;7.88;73.13
4981;BME280;2507;50.392;7.482;2024-01-06T10:49:00;100085.16;;;8.06;72.71
4981;BME280;2507;50.392;7.482;2024-01-06T10:51:27;100081.16;;;8.13;71.22
4981;BME280;2507;50.392;7.482;2024-01-06T10:53:53;100082.22;;;8.23;71.25
4981;BME280;2507;50.392;7.482;2024-01-06T10:56:19;100092.34;;;8.40;70.10
4981;BME280;2507;50.392;7.482;2024-01-06T10:58:47;100092.03;;;8.45;69.47
4981;BME280;2507;50.392;7.482;2024-01-06T11:01:15;100095.28;;;8.48;69.44
4981;BME280;2507;50.392;7.482;2024-01-06T11:03:42;100089.75;;;8.40;69.00
4981;BME280;2507;50.392;7.482;2024-01-06T11:06:08;100085.44;;;8.52;68.96
4981;BME280;2507;50.392;7.482;2024-01-06T11:08:41;100083.25;;;8.46;69.21
4981;BME280;2507;50.392;7.482;2024-01-06T11:11:16;100085.66;;;8.49;69.08
4981;BME280;2507;50.392;7.482;2024-01-06T11:13:41;100082.75;;;8.41;69.40
4981;BME280;2507;50.392;7.482;2024-01-06T11:16:08;100080.25;;;8.27;70.13
4981;BME280;2507;50.392;7.482;2024-01-06T11:18:37;100078.69;;;8.24;71.36
4981;BME280;2507;50.392;7.482;2024-01-06T11:24:13;100080.78;;;8.32;71.21
4981;BME280;2507;50.392;7.482;2024-01-06T11:26:42;100089.53;;;8.43;70.89
4981;BME280;2507;50.392;7.482;2024-01-06T11:29:07;100091.00;;;8.35;70.82
4981;BME280;2507;50.392;7.482;2024-01-06T11:31:33;100083.06;;;8.23;70.66
4981;BME280;2507;50.392;7.482;2024-01-06T11:34:32;100080.44;;;8.23;71.36
4981;BME280;2507;50.392;7.482;2024-01-06T11:37:01;100074.38;;;8.23;71.57
4981;BME280;2507;50.392;7.482;2024-01-06T11:39:37;100071.03;;;8.21;71.40
4981;BME280;2507;50.392;7.482;2024-01-06T11:42:04;100081.72;;;8.31;70.88
4981;BME280;2507;50.392;7.482;2024-01-06T11:44:29;100086.84;;;8.32;70.95
4981;BME280;2507;50.392;7.482;2024-01-06T11:46:59;100088.09;;;8.27;70.68
4981;BME280;2507;50.392;7.482;2024-01-06T11:49:26;100096.69;;;8.29;70.67
4981;BME280;2507;50.392;7.482;2024-01-06T11:51:58;100094.38;;;8.24;70.45
4981;BME280;2507;50.392;7.482;2024-01-06T11:54:24;100091.94;;;8.21;69.87
4981;BME280;2507;50.392;7.482;2024-01-06T11:56:49;100092.06;;;8.07;69.30
4981;BME280;2507;50.392;7.482;2024-01-06T11:59:15;100100.81;;;8.06;70.04
4981;BME280;2507;50.392;7.482;2024-01-06T12:01:40;100090.28;;;7.95;69.01
4981;BME280;2507;50.392;7.482;2024-01-06T12:04:06;100094.13;;;7.89;69.50
4981;BME280;2507;50.392;7.482;2024-01-06T12:06:33;100096.00;;;7.87;69.73
4981;BME280;2507;50.392;7.482;2024-01-06T12:09:05;100097.06;;;7.72;69.08
4981;BME280;2507;50.392;7.482;2024-01-06T12:11:31;100091.41;;;7.66;68.94
4981;BME280;2507;50.392;7.482;2024-01-06T12:13:56;100086.50;;;7.61;68.47
4981;BME280;2507;50.392;7.482;2024-01-06T12:16:22;100090.16;;;7.59;68.96
4981;BME280;2507;50.392;7.482;2024-01-06T12:18:47;100086.69;;;7.58;68.74
4981;BME280;2507;50.392;7.482;2024-01-06T12:21:13;100083.28;;;7.70;69.27
4981;BME280;2507;50.392;7.482;2024-01-06T12:23:38;100088.09;;;7.76;68.73
4981;BME280;2507;50.392;7.482;2024-01-06T12:26:04;100091.53;;;7.77;67.90
4981;BME280;2507;50.392;7.482;2024-01-06T12:28:29;100089.88;;;7.88;67.75
4981;BME280;2507;50.392;7.482;2024-01-06T12:30:54;100094.13;;;7.89;66.76
4981;BME280;2507;50.392;7.482;2024-01-06T12:33:20;100094.47;;;7.85;67.04
4981;BME280;2507;50.392;7.482;2024-01-06T12:35:45;100091.00;;;7.84;67.39
4981;BME280;2507;50.392;7.482;2024-01-06T12:38:10;100103.78;;;7.89;67.01
4981;BME280;2507;50.392;7.482;2024-01-06T12:40:37;100111.06;;;7.71;67.46
4981;BME280;2507;50.392;7.482;2024-01-06T12:43:04;100110.41;;;7.68;67.42
4981;BME280;2507;50.392;7.482;2024-01-06T12:45:29;100115.84;;;7.65;67.97
4981;BME280;2507;50.392;7.482;2024-01-06T12:47:55;100114.38;;;7.61;66.73
4981;BME280;2507;50.392;7.482;2024-01-06T12:50:20;100114.38;;;7.61;66.43
4981;BME280;2507;50.392;7.482;2024-01-06T12:52:45;100115.66;;;7.68;66.07
4981;BME280;2507;50.392;7.482;2024-01-06T12:55:11;100121.31;;;7.74;66.01
4981;BME280;2507;50.392;7.482;2024-01-06T12:57:36;100133.00;;;7.81;65.20
4981;BME280;2507;50.392;7.482;2024-01-06T13:00:02;100129.97;;;7.75;65.63
4981;BME280;2507;50.392;7.482;2024-01-06T13:02:29;100134.03;;;7.66;65.69
4981;BME280;2507;50.392;7.482;2024-01-06T13:04:54;100136.50;;;7.55;63.86
4981;BME280;2507;50.392;7.482;2024-01-06T13:07:20;100134.09;;;7.40;64.55
4981;BME280;2507;50.392;7.482;2024-01-06T13:09:47;100140.06;;;7.28;66.69
4981;BME280;2507;50.392;7.482;2024-01-06T13:12:12;100142.59;;;7.29;66.65
4981;BME280;2507;50.392;7.482;2024-01-06T13:14:38;100146.63;;;7.20;66.33
4981;BME280;2507;50.392;7.482;2024-01-06T13:17:03;100143.84;;;7.23;66.71
4981;BME280;2507;50.392;7.482;2024-01-06T13:19:28;100141.25;;;7.23;66.35
4981;BME280;2507;50.392;7.482;2024-01-06T13:21:54;100142.25;;;7.21;66.24
4981;BME280;2507;50.392;7.482;2024-01-06T13:24:19;100147.00;;;7.29;66.60